Latest Weather Observations for Nullo Mountain

IDN60801

Issued at 12:05 pm EST Tuesday 23 September 2014 (issued every 30 minutes, with the page automatically refreshed every 10 minutes)

About weather observations | Map of weather stations | Latest weather observations for NSW | Other Formats
Station Details ID: 062100 Name: NULLO MOUNTAIN AWS Lat: -32.72 Lon: 150.23 Height: 1130.0 m
Data from the previous 72 hours. | See also: Recent months at Nullo Mountain
Date/Time
EST
Temp
°C
App
Temp
°C
Dew
Point
Rel
Hum
%
Delta-T
°C
Wind Press
QNH
hPa
Press
MSL
hPa
Rain
since 9 am
mm
Dir
 
Spd
km/h
Gust
km/h
Spd
kts
Gust
kts
23/12:00pm 15.0 11.5 -1.1 33 7.1 E 7 15 4 8 - - 0.0
23/11:30am 14.5 11.2 0.4 38 6.4 E 7 11 4 6 - - 0.0
23/11:00am 14.2 11.2 2.1 44 5.7 E 7 11 4 6 - - 0.0
23/10:30am 13.6 10.4 0.6 41 5.9 E 7 11 4 6 - - 0.0
23/10:00am 13.3 10.6 0.0 40 5.9 ENE 4 7 2 4 - - 0.0
23/09:30am 12.0 8.9 0.1 44 5.2 E 6 7 3 4 - - 0.0
23/09:00am 11.1 7.9 0.8 49 4.6 E 7 9 4 5 - - 0.0
23/08:30am 11.1 8.0 1.6 52 4.3 E 7 11 4 6 - - 0.0
23/08:00am 10.0 6.4 0.9 53 4.0 E 9 13 5 7 - - 0.0
23/07:30am 8.7 5.1 2.7 66 2.7 E 11 17 6 9 - - 0.0
23/07:00am 7.6 4.9 2.9 72 2.1 ESE 6 9 3 5 - - 0.0
23/06:30am 6.1 3.1 2.2 76 1.7 ESE 7 9 4 5 - - 0.0
23/06:00am 4.2 1.2 0.5 77 1.5 ESE 6 7 3 4 - - 0.0
23/05:30am 3.6 0.6 1.0 83 1.1 ESE 6 7 3 4 - - 0.0
23/05:00am 4.5 1.4 1.5 81 1.3 E 7 9 4 5 - - 0.0
23/04:30am 4.8 1.3 1.5 79 1.4 E 9 11 5 6 - - 0.0
23/04:00am 4.4 1.5 2.4 87 0.9 E 7 9 4 5 - - 0.0
23/03:30am 3.7 0.3 1.6 86 0.9 E 9 11 5 6 - - 0.0
23/03:00am 4.6 1.4 3.3 91 0.6 E 9 11 5 6 - - 0.0
23/02:30am 4.6 1.3 2.3 85 1.0 E 9 11 5 6 - - 0.0
23/02:00am 6.4 2.9 3.6 82 1.3 ESE 11 15 6 8 - - 0.0
23/01:30am 6.4 2.9 3.7 83 1.2 E 11 15 6 8 - - 0.0
23/01:00am 7.1 3.8 4.4 83 1.3 ESE 11 17 6 9 - - 0.0
23/12:30am 6.8 3.4 4.1 83 1.2 ESE 11 15 6 8 - - 0.0
23/12:00am 6.0 2.9 3.7 85 1.0 E 9 15 5 8 - - 0.0
 
Date/Time
EST
Temp
°C
App
Temp
°C
Dew
Point
Rel
Hum
%
Delta-T
°C
Wind Press
QNH
hPa
Press
MSL
hPa
Rain
since 9 am
mm
Dir
 
Spd
km/h
Gust
km/h
Spd
kts
Gust
kts
22/11:30pm 6.7 3.5 5.0 89 0.8 E 11 13 6 7 - - 0.0
22/11:00pm 5.8 3.2 4.0 88 0.8 E 7 11 4 6 - - 0.0
22/10:30pm 6.3 3.4 4.5 88 0.8 ESE 9 13 5 7 - - 0.0
22/10:00pm 6.6 3.3 4.6 87 0.9 ESE 11 15 6 8 - - 0.0
22/09:30pm 7.0 3.7 4.8 86 1.0 ESE 11 17 6 9 - - 0.0
22/09:00pm 7.5 3.9 5.0 84 1.2 ESE 13 15 7 8 - - 0.0
22/08:30pm 7.6 3.6 4.7 82 1.4 E 15 19 8 10 - - 0.0
22/08:00pm 7.4 4.8 4.0 79 1.6 E 7 15 4 8 - - 0.0
22/07:30pm 7.0 4.3 2.5 73 2.0 E 6 9 3 5 - - 0.0
22/07:00pm 8.3 5.7 3.0 69 2.4 E 6 11 3 6 - - 0.0
22/06:30pm 9.4 5.0 2.7 63 3.1 E 15 19 8 10 - - 0.0
22/06:00pm 9.6 6.0 3.1 64 3.0 E 11 15 6 8 - - 0.0
22/05:30pm 11.0 8.2 3.3 59 3.6 E 7 11 4 6 - - 0.0
22/05:00pm 13.0 10.2 3.4 52 4.6 E 7 11 4 6 - - 0.0
22/04:30pm 13.6 10.9 3.7 51 4.8 E 7 11 4 6 - - 0.0
22/04:00pm 14.3 11.8 4.0 50 5.0 ENE 6 11 3 6 - - 0.0
22/03:30pm 14.0 11.2 3.2 48 5.2 E 7 13 4 7 - - 0.0
22/03:00pm 14.3 11.8 4.0 50 5.0 ENE 6 13 3 7 - - 0.0
22/02:30pm 14.0 11.3 3.8 50 4.9 E 7 13 4 7 - - 0.0
22/02:00pm 13.6 9.8 3.9 52 4.7 E 13 19 7 10 - - 0.0
22/01:30pm 13.4 10.7 3.5 51 4.7 S 7 13 4 7 - - 0.0
22/01:00pm 13.2 10.6 4.4 55 4.3 E 7 15 4 8 - - 0.0
22/12:30pm 12.7 10.3 4.2 56 4.1 ENE 6 11 3 6 - - 0.0
22/12:00pm 12.4 9.9 3.9 56 4.1 NE 6 9 3 5 - - 0.0
22/11:30am 11.4 8.9 4.6 63 3.3 E 7 11 4 6 - - 0.0
22/11:00am 10.2 7.4 5.0 70 2.5 ESE 9 15 5 8 - - 0.0
22/10:30am 9.7 6.9 5.1 73 2.2 ESE 9 15 5 8 - - 0.0
22/10:00am 9.8 7.6 6.3 79 1.7 E 7 11 4 6 - - 0.0
22/09:30am 8.1 4.8 4.7 79 1.6 E 11 19 6 10 - - 0.0
22/09:00am 8.0 5.1 4.6 79 1.6 ENE 9 20 5 11 - - 0.0
22/08:30am 7.8 4.0 5.8 87 1.0 E 15 22 8 12 - - 0.0
22/08:00am 7.3 3.7 5.0 85 1.1 E 13 24 7 13 - - 0.0
22/07:30am 6.8 3.1 6.1 95 0.3 E 15 24 8 13 - - 0.0
22/07:00am 5.6 1.4 5.5 99 0.0 E 17 22 9 12 - - 0.0
22/06:30am 5.3 1.4 5.2 99 0.0 E 15 19 8 10 - - 0.0
22/06:00am 5.3 1.4 5.2 99 0.0 E 15 20 8 11 - - 0.0
22/05:30am 5.6 0.8 5.5 99 0.0 E 20 28 11 15 - - 0.0
22/05:00am 5.1 1.1 5.0 99 0.0 E 15 22 8 12 - - 0.0
22/04:30am 5.2 1.6 5.1 99 0.0 E 13 20 7 11 - - 0.0
22/04:00am 5.3 2.9 5.2 99 0.0 E 7 13 4 7 - - 0.0
22/03:30am 6.0 2.2 5.9 99 0.0 E 15 20 8 11 - - 0.0
22/03:00am 6.0 3.0 5.9 99 0.0 E 11 19 6 10 - - 0.0
22/02:30am 6.2 3.6 6.1 99 0.0 E 9 17 5 9 - - 0.0
22/02:00am 6.1 2.0 6.0 99 0.0 E 17 24 9 13 - - 0.0
22/01:30am 6.3 3.3 6.2 99 0.0 E 11 19 6 10 - - 0.0
22/01:00am 6.5 3.6 6.4 99 0.0 E 11 22 6 12 - - 0.0
22/12:30am 6.6 3.3 6.3 98 0.1 E 13 20 7 11 - - 0.0
22/12:00am 6.6 3.3 6.3 98 0.1 E 13 19 7 10 - - 0.0
 
Date/Time
EST
Temp
°C
App
Temp
°C
Dew
Point
Rel
Hum
%
Delta-T
°C
Wind Press
QNH
hPa
Press
MSL
hPa
Rain
since 9 am
mm
Dir
 
Spd
km/h
Gust
km/h
Spd
kts
Gust
kts
21/11:30pm 6.7 3.4 6.4 98 0.1 E 13 19 7 10 - - 0.0
21/11:00pm 6.8 3.5 6.4 97 0.2 E 13 20 7 11 - - 0.0
21/10:30pm 7.0 3.7 6.6 97 0.2 E 13 17 7 9 - - 0.0
21/10:00pm 7.0 3.3 6.4 96 0.3 E 15 22 8 12 - - 0.0
21/09:30pm 7.3 3.2 6.4 94 0.4 E 17 22 9 12 - - 0.0
21/09:00pm 7.2 3.8 5.8 91 0.7 E 13 20 7 11 - - 0.0
21/08:30pm 7.4 5.1 5.5 88 0.9 ENE 7 15 4 8 - - 0.0
21/08:00pm 7.4 5.2 5.5 88 0.9 E 6 13 3 7 - - 0.0
21/07:30pm 7.5 5.5 4.5 81 1.4 NE 4 9 2 5 - - 0.0
21/07:00pm 7.2 4.9 2.7 73 2.0 ENE 4 6 2 3 - - 0.0
21/06:30pm 7.5 4.8 2.8 72 2.1 E 6 9 3 5 - - 0.0
21/06:00pm 8.2 6.2 2.4 67 2.6 ENE 2 4 1 2 - - 0.0
21/05:30pm 10.8 8.9 3.1 59 3.6 ENE 2 6 1 3 - - 0.0
21/05:00pm 11.3 8.7 3.1 57 3.8 ENE 6 11 3 6 - - 0.0
21/04:30pm 12.1 9.0 3.6 56 4.0 ESE 9 13 5 7 - - 0.0
21/04:00pm 12.2 9.4 3.4 55 4.2 E 7 13 4 7 - - 0.0
21/03:30pm 12.0 9.3 2.7 53 4.3 ESE 6 13 3 7 - - 0.0
21/03:00pm 12.8 9.9 2.4 49 4.8 S 7 15 4 8 - - 0.0
21/02:30pm 13.4 10.8 4.3 54 4.4 E 7 15 4 8 - - 0.0
21/02:00pm 12.3 9.5 3.3 54 4.3 ESE 7 19 4 10 - - 0.0
21/01:30pm 12.8 9.8 4.0 55 4.2 ENE 9 17 5 9 - - 0.0
21/01:00pm 11.4 7.9 3.7 59 3.7 ESE 11 17 6 9 - - 0.0
21/12:30pm 11.5 8.4 3.8 59 3.7 E 9 15 5 8 - - 0.0
21/12:00pm 10.8 7.9 4.7 66 2.9 E 9 15 5 8 - - 0.0
21/11:30am 11.0 8.5 6.4 73 2.3 E 9 17 5 9 - - 0.0
21/11:00am 10.0 6.7 4.6 69 2.6 E 11 17 6 9 - - 0.0
21/10:30am 10.3 7.3 5.9 74 2.2 ENE 11 20 6 11 - - 0.0
21/10:00am 9.5 5.3 5.5 76 1.9 E 17 24 9 13 - - 0.0
21/09:30am 8.4 4.0 5.0 79 1.6 E 17 24 9 13 - - 0.0
21/09:00am 7.5 3.5 5.0 84 1.2 E 15 22 8 12 - - 0.0
21/08:30am 7.0 3.3 4.7 85 1.1 E 13 20 7 11 - - 0.0
21/08:00am 7.4 4.2 5.2 86 1.0 E 11 20 6 11 - - 0.0
21/07:30am 6.2 1.4 4.8 91 0.7 E 19 26 10 14 - - 0.0
21/07:00am 5.1 0.7 4.8 98 0.1 E 17 26 9 14 - - 0.0
21/06:30am 4.8 0.8 4.7 99 0.0 E 15 20 8 11 - - 0.0
21/06:00am 4.5 1.1 4.2 98 0.1 E 11 17 6 9 - - 0.0
21/05:30am 4.5 0.7 3.9 96 0.3 E 13 17 7 9 - - 0.0
21/05:00am 4.5 0.3 3.8 95 0.3 E 15 24 8 13 - - 0.0
21/04:30am 4.2 -0.1 3.3 94 0.4 E 15 20 8 11 - - 0.0
21/04:00am 4.2 -0.5 2.9 91 0.6 E 17 20 9 11 - - 0.0
21/03:30am 4.8 -0.3 3.3 90 0.7 ESE 19 26 10 14 - - 0.0
21/03:00am 4.6 -0.6 3.6 93 0.4 ESE 20 30 11 16 - - 0.0
21/02:30am 4.5 -0.5 3.5 93 0.4 ESE 19 28 10 15 - - 0.0
21/02:00am 4.6 -0.4 3.7 94 0.4 E 19 30 10 16 - - 0.0
21/01:30am 4.7 -0.9 3.4 91 0.6 E 22 30 12 16 - - 0.0
21/01:00am 4.7 -0.6 3.0 89 0.7 E 20 28 11 15 - - 0.0
21/12:30am 4.8 -0.7 3.8 93 0.4 ESE 22 30 12 16 - - 0.0
21/12:00am 4.9 -0.2 4.0 94 0.4 ESE 20 32 11 17 - - 0.0
 
Date/Time
EST
Temp
°C
App
Temp
°C
Dew
Point
Rel
Hum
%
Delta-T
°C
Wind Press
QNH
hPa
Press
MSL
hPa
Rain
since 9 am
mm
Dir
 
Spd
km/h
Gust
km/h
Spd
kts
Gust
kts
20/11:30pm 5.2 -0.2 4.3 94 0.4 ESE 22 30 12 16 - - 0.0
20/11:00pm 5.1 -0.4 3.9 92 0.5 ESE 22 35 12 19 - - 0.0
20/10:30pm 5.1 -0.1 3.4 89 0.8 ESE 20 35 11 19 - - 0.0
20/10:00pm 5.6 0.7 4.2 91 0.6 E 19 24 10 13 - - 0.0
20/09:30pm 6.2 1.5 5.0 92 0.6 E 19 28 10 15 - - 0.0
20/09:00pm 6.7 2.1 5.5 92 0.6 E 19 30 10 16 - - 0.0
20/08:30pm 7.0 2.1 5.3 89 0.8 E 20 30 11 16 - - 0.0
20/08:00pm 7.3 2.9 4.6 83 1.3 E 17 24 9 13 - - 0.0
20/07:30pm 8.2 2.6 3.3 71 2.2 E 22 32 12 17 - - 0.0
20/07:00pm 8.5 3.9 1.6 62 3.0 E 15 19 8 10 - - 0.0
20/06:30pm 8.7 4.9 1.8 62 3.1 E 11 20 6 11 - - 0.0
20/06:00pm 8.3 4.1 1.5 62 3.0 E 13 17 7 9 - - 0.0
20/05:30pm 8.6 5.7 1.7 62 3.1 E 6 7 3 4 - - 0.0
20/05:00pm 10.3 7.3 1.7 55 3.9 E 7 9 4 5 - - 0.0
20/04:30pm 11.4 7.4 0.8 48 4.7 ESE 11 15 6 8 - - 0.0
20/04:00pm 13.3 10.9 1.9 46 5.3 NE 4 7 2 4 - - 0.0
20/03:30pm 12.0 9.4 0.8 46 5.0 ENE 4 7 2 4 - - 0.0
20/03:00pm 12.0 8.0 0.8 46 5.0 E 11 15 6 8 - - 0.0
20/02:30pm 13.4 9.9 1.1 43 5.6 ESE 9 15 5 8 - - 0.0
20/02:00pm 12.4 8.6 -1.1 39 5.8 E 9 13 5 7 - - 0.0
20/01:30pm 13.5 10.5 0.9 42 5.7 SE 6 11 3 6 - - 0.0
20/01:00pm 13.4 10.2 -0.6 38 6.1 ENE 6 13 3 7 - - 0.0
20/12:30pm 12.9 9.2 -3.0 33 6.6 NE 7 15 4 8 - - 0.0

Other Formats:

Comma delimited format used in spreadsheet applications
http://www.bom.gov.au/fwo/IDN60801/IDN60801.94754.axf

JavaScript Object Notation format (JSON) in row-major order
http://www.bom.gov.au/fwo/IDN60801/IDN60801.94754.json